createdAt,value
2018-09-15T00:00:59.310Z,98526.96
2018-09-15T00:03:28.698Z,98529.73
2018-09-15T00:05:58.218Z,98536.84
2018-09-15T00:08:27.916Z,98535.24
2018-09-15T00:10:57.031Z,98536.80
2018-09-15T00:13:26.378Z,98538.34
2018-09-15T00:15:55.584Z,98543.36
2018-09-15T00:18:24.732Z,98543.95
2018-09-15T00:20:53.931Z,98547.94
2018-09-15T00:23:23.087Z,98543.00
2018-09-15T00:25:52.321Z,98538.48
2018-09-15T00:28:21.623Z,98538.75
2018-09-15T00:30:50.944Z,98546.28
2018-09-15T00:33:19.729Z,98539.81
2018-09-15T00:35:48.927Z,98540.33
2018-09-15T00:38:19.621Z,98538.95
2018-09-15T00:40:48.758Z,98543.90
2018-09-15T00:43:17.883Z,98545.66
2018-09-15T00:45:48.154Z,98548.50
2018-09-15T00:48:17.260Z,98548.08
2018-09-15T00:50:46.362Z,98551.58
2018-09-15T00:53:15.498Z,98551.79
2018-09-15T00:55:44.594Z,98554.97
2018-09-15T00:58:13.723Z,98548.44
2018-09-15T01:00:43.446Z,98549.28
2018-09-15T01:03:12.562Z,98553.08
2018-09-15T01:05:41.657Z,98554.97
2018-09-15T01:08:10.826Z,98556.81
2018-09-15T01:10:39.938Z,98561.62
2018-09-15T01:13:09.117Z,98560.33
2018-09-15T01:15:38.294Z,98566.06
2018-09-15T01:18:07.466Z,98559.99
2018-09-15T01:20:38.286Z,98549.76
2018-09-15T01:23:07.526Z,98551.48
2018-09-15T01:25:36.748Z,98551.96
2018-09-15T01:28:06.034Z,98565.65
2018-09-15T01:30:34.815Z,98568.80
2018-09-15T01:33:03.967Z,98566.23
2018-09-15T01:35:33.122Z,98560.06
2018-09-15T01:38:02.234Z,98555.05
2018-09-15T01:40:31.406Z,98563.81
2018-09-15T01:43:00.662Z,98568.16
2018-09-15T01:45:29.818Z,98568.52
2018-09-15T01:47:58.933Z,98568.12
2018-09-15T01:50:28.043Z,98570.25
2018-09-15T01:52:57.228Z,98568.08
2018-09-15T01:55:26.378Z,98568.15
2018-09-15T01:57:56.093Z,98575.70
2018-09-15T02:00:25.390Z,98574.81
2018-09-15T02:02:54.563Z,98574.95
2018-09-15T02:05:23.706Z,98580.63
2018-09-15T02:07:52.821Z,98578.25
2018-09-15T02:10:21.938Z,98577.40
2018-09-15T02:12:51.046Z,98577.91
2018-09-15T02:15:20.602Z,98582.27
2018-09-15T02:17:50.324Z,98581.09
2018-09-15T02:20:19.454Z,98583.13
2018-09-15T02:22:48.675Z,98581.70
2018-09-15T02:25:17.821Z,98586.46
2018-09-15T02:27:46.962Z,98582.60
2018-09-15T02:30:17.327Z,98580.55
2018-09-15T02:32:46.185Z,98580.48
2018-09-15T02:35:15.754Z,98589.13
2018-09-15T02:37:44.913Z,98584.84
2018-09-15T02:40:14.062Z,98588.40
2018-09-15T02:42:43.898Z,98588.17
2018-09-15T02:45:13.025Z,98594.77
2018-09-15T02:47:42.490Z,98589.13
2018-09-15T02:50:11.999Z,98589.25
2018-09-15T02:52:41.122Z,98597.51
2018-09-15T02:55:10.397Z,98597.51
2018-09-15T02:57:39.586Z,98596.53
2018-09-15T03:00:09.718Z,98599.36
2018-09-15T03:02:38.889Z,98595.94
2018-09-15T03:05:08.003Z,98596.64
2018-09-15T03:07:37.320Z,98599.67
2018-09-15T03:10:06.482Z,98600.48
2018-09-15T03:12:35.585Z,98600.17
2018-09-15T03:15:05.018Z,98607.61
2018-09-15T03:17:34.167Z,98606.32
2018-09-15T03:20:03.381Z,98605.75
2018-09-15T03:22:32.467Z,98621.48
2018-09-15T03:25:01.627Z,98620.05
2018-09-15T03:27:30.774Z,98620.36
2018-09-15T03:30:00.214Z,98621.34
2018-09-15T03:32:29.425Z,98621.56
2018-09-15T03:34:58.950Z,98624.91
2018-09-15T03:37:28.222Z,98627.34
2018-09-15T03:39:57.019Z,98629.87
2018-09-15T03:42:26.174Z,98624.48
2018-09-15T03:44:55.337Z,98633.65
2018-09-15T03:47:24.506Z,98633.99
2018-09-15T03:49:54.438Z,98637.13
2018-09-15T03:52:23.608Z,98633.91
2018-09-15T03:54:53.418Z,98627.91
2018-09-15T03:57:22.539Z,98623.30
2018-09-15T03:59:51.653Z,98632.11
2018-09-15T04:02:20.750Z,98635.56
2018-09-15T04:04:50.597Z,98634.15
2018-09-15T04:07:19.733Z,98642.64
2018-09-15T04:09:48.865Z,98643.70
2018-09-15T04:12:17.986Z,98649.06
2018-09-15T04:14:47.509Z,98647.97
2018-09-15T04:17:16.645Z,98644.27
2018-09-15T04:19:46.630Z,98651.19
2018-09-15T04:22:15.793Z,98656.69
2018-09-15T04:24:44.990Z,98658.48
2018-09-15T04:27:14.134Z,98664.41
2018-09-15T04:29:43.265Z,98672.84
2018-09-15T04:32:12.402Z,98680.16
2018-09-15T04:34:41.980Z,98679.32
2018-09-15T04:37:10.821Z,98674.45
2018-09-15T04:39:39.945Z,98684.23
2018-09-15T04:42:09.111Z,98682.39
2018-09-15T04:44:38.358Z,98689.39
2018-09-15T04:47:07.481Z,98695.28
2018-09-15T04:49:36.626Z,98699.52
2018-09-15T04:52:05.758Z,98705.84
2018-09-15T04:54:34.947Z,98704.23
2018-09-15T04:57:04.122Z,98707.78
2018-09-15T04:59:33.250Z,98714.92
2018-09-15T05:02:02.387Z,98720.38
2018-09-15T05:04:32.222Z,98715.94
2018-09-15T05:07:01.337Z,98717.41
2018-09-15T05:09:30.490Z,98719.11
2018-09-15T05:11:59.637Z,98718.92
2018-09-15T05:14:29.248Z,98722.59
2018-09-15T05:16:58.389Z,98723.59
2018-09-15T05:19:27.501Z,98723.59
2018-09-15T05:21:56.928Z,98727.35
2018-09-15T05:24:26.045Z,98727.04
2018-09-15T05:26:55.266Z,98721.53
2018-09-15T05:29:24.309Z,98726.16
2018-09-15T05:31:53.438Z,98729.33
2018-09-15T05:34:22.902Z,98728.95
2018-09-15T05:36:52.042Z,98729.17
2018-09-15T05:39:21.186Z,98735.69
2018-09-15T05:41:50.836Z,98737.19
2018-09-15T05:44:20.008Z,98738.57
2018-09-15T05:46:49.153Z,98742.33
2018-09-15T05:49:18.283Z,98750.72
2018-09-15T05:51:47.457Z,98752.19
2018-09-15T05:54:16.638Z,98751.56
2018-09-15T05:56:45.801Z,98754.95
2018-09-15T05:59:14.937Z,98758.36
2018-09-15T06:01:44.167Z,98760.98
2018-09-15T06:04:13.242Z,98762.00
2018-09-15T06:06:42.409Z,98759.73
2018-09-15T06:09:12.547Z,98758.98
2018-09-15T06:11:42.286Z,98756.17
2018-09-15T06:14:11.455Z,98760.36
2018-09-15T06:16:40.615Z,98765.78
2018-09-15T06:19:10.022Z,98764.56
2018-09-15T06:21:39.121Z,98766.63
2018-09-15T06:24:08.338Z,98768.00
2018-09-15T06:26:38.285Z,98767.03
2018-09-15T06:29:08.166Z,98767.50
2018-09-15T06:31:37.478Z,98769.91
2018-09-15T06:34:06.986Z,98776.54
2018-09-15T06:36:36.113Z,98777.17
2018-09-15T06:39:08.673Z,98781.34
2018-09-15T06:41:38.266Z,98774.16
2018-09-15T06:44:07.515Z,98775.31
2018-09-15T06:46:36.623Z,98774.11
2018-09-15T06:49:05.754Z,98786.44
2018-09-15T06:51:34.863Z,98789.31
2018-09-15T06:54:04.702Z,98796.80
2018-09-15T06:56:33.845Z,98799.05
2018-09-15T06:59:02.974Z,98803.83
2018-09-15T07:01:32.094Z,98803.20
2018-09-15T07:04:02.490Z,98811.05
2018-09-15T07:06:31.617Z,98810.20
2018-09-15T07:09:00.760Z,98822.94
2018-09-15T07:11:29.917Z,98826.11
2018-09-15T07:13:59.029Z,98826.67
2018-09-15T07:16:28.165Z,98828.94
2018-09-15T07:18:57.343Z,98833.00
2018-09-15T07:21:27.222Z,98826.75
2018-09-15T07:23:56.444Z,98838.08
2018-09-15T07:26:25.642Z,98836.52
2018-09-15T07:28:54.770Z,98842.30
2018-09-15T07:31:23.899Z,98843.45
2018-09-15T07:33:53.085Z,98841.72
2018-09-15T07:36:22.965Z,98852.27
2018-09-15T07:38:52.118Z,98849.75
2018-09-15T07:41:21.276Z,98851.56
2018-09-15T07:43:50.486Z,98853.23
2018-09-15T07:46:19.618Z,98854.05
2018-09-15T07:48:48.798Z,98852.39
2018-09-15T07:51:18.762Z,98851.06
2018-09-15T07:53:47.974Z,98854.75
2018-09-15T07:56:17.125Z,98851.95
2018-09-15T07:58:46.298Z,98852.56
2018-09-15T08:01:15.506Z,98852.78
2018-09-15T08:03:44.313Z,98850.05
2018-09-15T08:06:13.433Z,98844.38
2018-09-15T08:08:42.594Z,98848.91
2018-09-15T08:11:11.793Z,98844.92
2018-09-15T08:13:40.879Z,98849.98
2018-09-15T08:16:10.662Z,98846.02
2018-09-15T08:18:39.781Z,98840.67
2018-09-15T08:21:08.922Z,98842.30
2018-09-15T08:23:38.720Z,98847.92
2018-09-15T08:26:07.954Z,98849.64
2018-09-15T08:28:37.778Z,98845.05
2018-09-15T08:31:07.413Z,98845.14
2018-09-15T08:33:36.573Z,98842.61
2018-09-15T08:36:05.739Z,98839.28
2018-09-15T08:38:34.878Z,98838.50
2018-09-15T08:41:04.001Z,98840.96
2018-09-15T08:43:33.942Z,98841.55
2018-09-15T08:46:03.769Z,98840.77
2018-09-15T08:48:33.868Z,98850.15
2018-09-15T08:51:03.201Z,98837.20
2018-09-15T08:53:32.034Z,98839.11
2018-09-15T08:56:01.158Z,98839.01
2018-09-15T08:58:30.981Z,98843.61
2018-09-15T09:01:00.126Z,98848.94
2018-09-15T09:03:29.233Z,98857.03
2018-09-15T09:05:59.954Z,98846.84
2018-09-15T09:08:29.094Z,98850.47
2018-09-15T09:10:58.905Z,98852.77
2018-09-15T09:13:28.084Z,98853.09
2018-09-15T09:15:57.445Z,98854.45
2018-09-15T09:18:26.652Z,98856.55
2018-09-15T09:20:55.842Z,98857.61
2018-09-15T09:23:25.370Z,98855.20
2018-09-15T09:25:55.418Z,98858.41
2018-09-15T09:28:24.478Z,98867.08
2018-09-15T09:30:53.638Z,98859.26
2018-09-15T09:33:22.746Z,98859.19
2018-09-15T09:35:52.590Z,98857.30
2018-09-15T09:38:21.936Z,98863.40
2018-09-15T09:40:51.290Z,98861.98
2018-09-15T09:43:20.844Z,98855.94
2018-09-15T09:45:50.666Z,98863.83
2018-09-15T09:48:20.031Z,98862.17
2018-09-15T09:50:49.592Z,98861.03
2018-09-15T09:53:18.730Z,98860.25
2018-09-15T09:55:47.929Z,98866.14
2018-09-15T09:58:17.096Z,98865.58
2018-09-15T10:00:51.562Z,98863.88
2018-09-15T10:03:20.792Z,98861.32
2018-09-15T10:05:50.886Z,98855.00
2018-09-15T10:08:20.726Z,98858.30
2018-09-15T10:10:50.025Z,98848.50
2018-09-15T10:13:19.750Z,98852.98
2018-09-15T10:15:49.503Z,98848.07
2018-09-15T10:18:18.640Z,98852.02
2018-09-15T10:20:47.875Z,98851.21
2018-09-15T10:23:17.014Z,98847.68
2018-09-15T10:25:46.154Z,98844.69
2018-09-15T10:28:16.090Z,98840.69
2018-09-15T10:30:45.945Z,98844.20
2018-09-15T10:33:15.083Z,98838.27
2018-09-15T10:35:44.244Z,98843.84
2018-09-15T10:38:13.382Z,98845.86
2018-09-15T10:40:42.553Z,98839.12
2018-09-15T10:43:11.686Z,98842.72
2018-09-15T10:45:40.814Z,98845.22
2018-09-15T10:48:09.965Z,98840.89
2018-09-15T10:50:39.090Z,98836.75
2018-09-15T10:53:08.320Z,98834.55
2018-09-15T10:55:37.934Z,98838.80
2018-09-15T10:58:07.067Z,98839.47
2018-09-15T11:00:36.299Z,98847.10
2018-09-15T11:03:05.821Z,98846.84
2018-09-15T11:05:34.937Z,98848.85
2018-09-15T11:08:05.110Z,98845.14
2018-09-15T11:10:35.928Z,98840.66
2018-09-15T11:13:06.006Z,98849.69
2018-09-15T11:15:41.955Z,98842.73
2018-09-15T11:18:11.786Z,98847.70
2018-09-15T11:20:41.031Z,98842.48
2018-09-15T11:23:10.299Z,98850.03
2018-09-15T11:25:40.133Z,98846.73
2018-09-15T11:28:09.477Z,98850.09
2018-09-15T11:30:38.632Z,98853.70
2018-09-15T11:33:08.530Z,98849.52
2018-09-15T11:35:37.706Z,98842.63
2018-09-15T11:38:07.373Z,98838.83
2018-09-15T11:40:37.262Z,98842.73
2018-09-15T11:43:08.301Z,98845.06
2018-09-15T11:45:37.921Z,98843.79
2018-09-15T11:48:07.851Z,98841.52
2018-09-15T11:50:36.963Z,98844.02
2018-09-15T11:53:06.629Z,98846.34
2018-09-15T11:55:37.081Z,98845.60
2018-09-15T11:58:07.218Z,98835.69
2018-09-15T12:00:39.749Z,98836.78
2018-09-15T12:03:09.806Z,98838.51
2018-09-15T12:05:39.822Z,98832.94
2018-09-15T12:08:09.088Z,98833.86
2018-09-15T12:10:38.825Z,98833.77
2018-09-15T12:13:07.708Z,98828.67
2018-09-15T12:15:36.964Z,98826.90
2018-09-15T12:18:06.098Z,98828.61
2018-09-15T12:20:35.231Z,98832.66
2018-09-15T12:23:04.778Z,98827.00
2018-09-15T12:25:35.692Z,98823.74
2018-09-15T12:28:06.941Z,98819.13
2018-09-15T12:30:36.694Z,98822.34
2018-09-15T12:33:05.923Z,98813.00
2018-09-15T12:35:35.093Z,98817.80
2018-09-15T12:38:04.570Z,98818.17
2018-09-15T12:40:33.693Z,98821.31
2018-09-15T12:43:02.875Z,98813.91
2018-09-15T12:45:32.071Z,98824.03
2018-09-15T12:48:01.198Z,98819.31
2018-09-15T12:50:30.678Z,98817.95
2018-09-15T12:52:59.817Z,98811.88
2018-09-15T12:55:28.926Z,98806.47
2018-09-15T12:57:58.302Z,98811.95
2018-09-15T13:00:27.454Z,98803.77
2018-09-15T13:02:56.610Z,98800.77
2018-09-15T13:05:25.725Z,98791.75
2018-09-15T13:07:55.377Z,98796.68
2018-09-15T13:10:24.950Z,98802.57
2018-09-15T13:12:54.809Z,98806.47
2018-09-15T13:15:25.795Z,98795.87
2018-09-15T13:17:55.543Z,98798.20
2018-09-15T13:20:24.236Z,98797.59
2018-09-15T13:22:53.429Z,98790.28
2018-09-15T13:25:22.609Z,98780.51
2018-09-15T13:27:51.889Z,98785.91
2018-09-15T13:30:21.096Z,98778.14
2018-09-15T13:32:50.633Z,98779.05
2018-09-15T13:35:20.165Z,98775.98
2018-09-15T13:37:49.952Z,98780.30
2018-09-15T13:40:19.267Z,98779.19
2018-09-15T13:42:48.429Z,98778.42
2018-09-15T13:45:17.558Z,98771.06
2018-09-15T13:47:48.093Z,98768.80
2018-09-15T13:50:17.194Z,98770.44
2018-09-15T13:52:46.415Z,98773.31
2018-09-15T13:55:16.195Z,98770.84
2018-09-15T13:57:45.965Z,98774.55
2018-09-15T14:00:15.105Z,98773.91
2018-09-15T14:02:44.833Z,98772.22
2018-09-15T14:05:14.960Z,98771.56
2018-09-15T14:07:44.231Z,98774.59
2018-09-15T14:10:19.011Z,98766.32
2018-09-15T14:12:43.057Z,98766.76
2018-09-15T14:15:12.489Z,98767.92
2018-09-15T14:17:42.114Z,98765.86
2018-09-15T14:20:11.482Z,98766.27
2018-09-15T14:22:40.533Z,98756.05
2018-09-15T14:25:10.310Z,98760.77
2018-09-15T14:27:39.445Z,98761.85
2018-09-15T14:30:08.622Z,98770.75
2018-09-15T14:32:37.789Z,98762.59
2018-09-15T14:35:06.962Z,98762.00
2018-09-15T14:37:36.105Z,98758.28
2018-09-15T14:40:05.893Z,98758.13
2018-09-15T14:42:35.033Z,98759.77
2018-09-15T14:45:04.170Z,98751.34
2018-09-15T14:47:33.781Z,98756.14
2018-09-15T14:50:03.094Z,98756.00
2018-09-15T14:52:33.025Z,98755.39
2018-09-15T14:55:02.159Z,98750.59
2018-09-15T14:57:31.290Z,98751.77
2018-09-15T15:00:00.415Z,98754.14
2018-09-15T15:02:30.386Z,98746.56
2018-09-15T15:04:59.801Z,98747.47
2018-09-15T15:07:29.471Z,98745.30
2018-09-15T15:09:58.610Z,98751.77
2018-09-15T15:12:27.729Z,98748.05
2018-09-15T15:14:56.886Z,98735.05
2018-09-15T15:17:26.640Z,98736.37
2018-09-15T15:19:56.494Z,98737.50
2018-09-15T15:22:25.893Z,98741.06
2018-09-15T15:24:55.855Z,98739.78
2018-09-15T15:27:25.165Z,98739.79
2018-09-15T15:29:54.649Z,98746.32
2018-09-15T15:32:23.785Z,98745.83
2018-09-15T15:34:53.018Z,98742.92
2018-09-15T15:37:22.150Z,98742.14
2018-09-15T15:39:52.009Z,98741.82
2018-09-15T15:42:20.820Z,98745.46
2018-09-15T15:44:49.939Z,98739.80
2018-09-15T15:47:19.976Z,98745.91
2018-09-15T15:49:49.342Z,98735.87
2018-09-15T15:52:18.717Z,98733.84
2018-09-15T15:54:48.258Z,98749.47
2018-09-15T15:57:17.404Z,98748.70
2018-09-15T15:59:46.574Z,98749.98
2018-09-15T16:02:15.736Z,98752.58
2018-09-15T16:04:44.920Z,98758.33
2018-09-15T16:07:14.048Z,98755.52
2018-09-15T16:09:43.225Z,98756.13
2018-09-15T16:12:12.346Z,98756.25
2018-09-15T16:14:41.539Z,98757.85
2018-09-15T16:17:10.959Z,98759.69
2018-09-15T16:19:40.514Z,98761.67
2018-09-15T16:22:10.004Z,98758.22
2018-09-15T16:24:39.838Z,98765.62
2018-09-15T16:27:09.033Z,98763.97
2018-09-15T16:29:38.513Z,98757.91
2018-09-15T16:32:07.658Z,98762.25
2018-09-15T16:34:36.805Z,98765.71
2018-09-15T16:37:06.773Z,98765.77
2018-09-15T16:39:35.893Z,98770.00
2018-09-15T16:42:05.008Z,98772.78
2018-09-15T16:44:34.142Z,98776.02
2018-09-15T16:47:03.329Z,98777.45
2018-09-15T16:49:32.626Z,98776.83
2018-09-15T16:52:01.762Z,98782.85
2018-09-15T16:54:30.925Z,98783.17
2018-09-15T16:57:00.154Z,98782.85
2018-09-15T16:59:29.259Z,98781.55
2018-09-15T17:01:58.394Z,98783.76
2018-09-15T17:04:27.541Z,98787.41
2018-09-15T17:06:56.765Z,98790.47
2018-09-15T17:09:25.924Z,98793.83
2018-09-15T17:11:55.093Z,98800.31
2018-09-15T17:14:24.229Z,98798.56
2018-09-15T17:16:53.401Z,98796.23
2018-09-15T17:19:22.761Z,98797.04
2018-09-15T17:21:51.938Z,98794.94
2018-09-15T17:24:21.069Z,98798.33
2018-09-15T17:26:50.193Z,98799.89
2018-09-15T17:29:19.413Z,98801.91
2018-09-15T17:31:48.564Z,98813.81
2018-09-15T17:34:17.828Z,98810.81
2018-09-15T17:36:47.002Z,98821.27
2018-09-15T17:39:16.874Z,98825.33
2018-09-15T17:41:46.030Z,98821.05
2018-09-15T17:44:15.153Z,98825.03
2018-09-15T17:46:44.422Z,98826.91
2018-09-15T17:49:13.577Z,98828.22
2018-09-15T17:51:42.701Z,98833.39
2018-09-15T17:54:11.842Z,98836.45
2018-09-15T17:56:40.970Z,98837.09
2018-09-15T17:59:10.093Z,98843.27
2018-09-15T18:01:39.254Z,98847.63
2018-09-15T18:04:08.586Z,98849.03
2018-09-15T18:06:37.721Z,98850.10
2018-09-15T18:09:08.621Z,98862.09
2018-09-15T18:11:37.761Z,98857.34
2018-09-15T18:14:07.596Z,98856.48
2018-09-15T18:16:36.723Z,98858.16
2018-09-15T18:19:05.918Z,98863.27
2018-09-15T18:21:35.153Z,98861.20
2018-09-15T18:24:04.294Z,98863.00
2018-09-15T18:26:34.150Z,98866.26
2018-09-15T18:29:03.328Z,98863.08
2018-09-15T18:31:32.611Z,98874.63
2018-09-15T18:34:01.726Z,98866.33
2018-09-15T18:36:30.989Z,98876.80
2018-09-15T18:39:01.505Z,98870.28
2018-09-15T18:41:30.473Z,98876.00
2018-09-15T18:43:59.610Z,98882.72
2018-09-15T18:46:29.214Z,98887.58
2018-09-15T18:48:58.366Z,98892.91
2018-09-15T18:51:27.514Z,98893.40
2018-09-15T18:53:56.621Z,98895.87
2018-09-15T18:56:26.038Z,98891.91
2018-09-15T18:58:55.103Z,98891.73
2018-09-15T19:01:24.323Z,98904.05
2018-09-15T19:03:53.878Z,98899.50
2018-09-15T19:06:23.009Z,98907.42
2018-09-15T19:08:52.278Z,98902.64
2018-09-15T19:11:21.505Z,98904.91
2018-09-15T19:13:50.744Z,98901.23
2018-09-15T19:16:19.945Z,98903.73
2018-09-15T19:18:49.070Z,98899.84
2018-09-15T19:21:18.214Z,98902.58
2018-09-15T19:23:47.353Z,98905.08
2018-09-15T19:26:16.533Z,98906.80
2018-09-15T19:28:45.654Z,98905.34
2018-09-15T19:31:14.862Z,98906.98
2018-09-15T19:33:44.631Z,98908.86
2018-09-15T19:36:13.770Z,98912.03
2018-09-15T19:38:42.930Z,98919.59
2018-09-15T19:41:12.502Z,98916.04
2018-09-15T19:43:41.630Z,98918.87
2018-09-15T19:46:10.826Z,98907.84
2018-09-15T19:48:39.995Z,98919.68
2018-09-15T19:51:09.137Z,98913.34
2018-09-15T19:53:38.310Z,98903.67
2018-09-15T19:56:07.440Z,98906.00
2018-09-15T19:58:36.662Z,98909.64
2018-09-15T20:01:05.976Z,98912.52
2018-09-15T20:03:35.114Z,98919.02
2018-09-15T20:06:05.508Z,98918.57
2018-09-15T20:08:34.538Z,98920.80
2018-09-15T20:11:03.657Z,98922.12
2018-09-15T20:13:33.463Z,98915.08
2018-09-15T20:16:01.118Z,98919.02
2018-09-15T20:18:30.193Z,98920.53
2018-09-15T20:20:57.933Z,98924.61
2018-09-15T20:23:27.097Z,98924.93
2018-09-15T20:25:56.261Z,98930.70
2018-09-15T20:28:25.466Z,98927.86
2018-09-15T20:30:54.618Z,98935.22
2018-09-15T20:33:23.770Z,98932.48
2018-09-15T20:35:54.671Z,98931.45
2018-09-15T20:38:23.753Z,98931.70
2018-09-15T20:40:52.945Z,98933.22
2018-09-15T20:43:22.677Z,98936.98
2018-09-15T20:45:52.467Z,98930.12
2018-09-15T20:48:22.548Z,98932.59
2018-09-15T20:50:52.537Z,98929.33
2018-09-15T20:53:22.218Z,98929.34
2018-09-15T20:55:51.977Z,98927.22
2018-09-15T20:58:21.409Z,98930.08
2018-09-15T21:00:51.666Z,98924.41
2018-09-15T21:03:21.427Z,98930.94
2018-09-15T21:05:51.209Z,98932.64
2018-09-15T21:08:20.069Z,98936.50
2018-09-15T21:10:49.230Z,98933.65
2018-09-15T21:13:19.138Z,98932.03
2018-09-15T21:15:48.328Z,98936.66
2018-09-15T21:18:18.910Z,98936.43
2018-09-15T21:20:48.501Z,98938.16
2018-09-15T21:23:17.388Z,98931.91
2018-09-15T21:25:46.509Z,98939.39
2018-09-15T21:28:16.358Z,98933.79
2018-09-15T21:30:45.509Z,98934.91
2018-09-15T21:33:15.407Z,98942.36
2018-09-15T21:35:44.574Z,98942.98
2018-09-15T21:38:14.516Z,98940.22
2018-09-15T21:40:44.401Z,98941.35
2018-09-15T21:43:13.647Z,98944.83
2018-09-15T21:45:43.297Z,98946.81
2018-09-15T21:48:12.423Z,98947.48
2018-09-15T21:50:41.584Z,98938.75
2018-09-15T21:53:11.562Z,98936.25
2018-09-15T21:55:40.898Z,98942.16
2018-09-15T21:58:10.518Z,98944.61
2018-09-15T22:00:40.519Z,98946.11
2018-09-15T22:03:09.850Z,98946.20
2018-09-15T22:05:39.413Z,98951.79
2018-09-15T22:08:15.906Z,98951.05
2018-09-15T22:10:45.397Z,98954.11
2018-09-15T22:13:15.903Z,98960.80
2018-09-15T22:15:45.385Z,98963.42
2018-09-15T22:18:14.735Z,98953.62
2018-09-15T22:20:43.534Z,98959.44
2018-09-15T22:23:12.709Z,98959.73
2018-09-15T22:25:41.865Z,98962.56
2018-09-15T22:28:10.993Z,98966.73
2018-09-15T22:30:40.101Z,98962.63
2018-09-15T22:33:09.285Z,98964.23
2018-09-15T22:35:38.406Z,98976.42
2018-09-15T22:38:07.554Z,98969.15
2018-09-15T22:40:39.040Z,98962.58
2018-09-15T22:43:08.166Z,98968.07
2018-09-15T22:45:36.890Z,98959.34
2018-09-15T22:48:06.065Z,98961.50
2018-09-15T22:50:35.242Z,98960.12
2018-09-15T22:53:04.410Z,98957.37
2018-09-15T22:55:33.549Z,98959.39
2018-09-15T22:58:02.914Z,98950.32
2018-09-15T23:00:32.054Z,98944.52
2018-09-15T23:03:01.241Z,98944.09
2018-09-15T23:05:30.438Z,98937.95
2018-09-15T23:08:00.065Z,98946.19
2018-09-15T23:10:29.194Z,98947.52
2018-09-15T23:12:58.334Z,98952.13
2018-09-15T23:15:27.445Z,98951.91
2018-09-15T23:17:56.589Z,98952.58
2018-09-15T23:20:25.783Z,98950.30
2018-09-15T23:22:55.459Z,98954.34
2018-09-15T23:25:24.581Z,98956.45
2018-09-15T23:27:54.086Z,98952.72
2018-09-15T23:30:23.298Z,98943.93
2018-09-15T23:32:52.445Z,98957.41
2018-09-15T23:35:21.614Z,98954.83
2018-09-15T23:37:50.757Z,98950.89
2018-09-15T23:40:19.955Z,98950.09
2018-09-15T23:42:49.137Z,98944.91
2018-09-15T23:45:18.273Z,98948.87
2018-09-15T23:47:47.014Z,98943.61
2018-09-15T23:50:16.137Z,98939.53
2018-09-15T23:52:45.453Z,98941.90
2018-09-15T23:55:14.669Z,98939.66
2018-09-15T23:57:43.822Z,98939.66
